Time;durP1;ratioP1;P1;durP2;ratioP2;P2;SDS_P1;SDS_P2;PMS_P1;PMS_P2;Temp;Humidity;BMP_temperature;BMP_pressure;BME280_temperature;BME280_humidity;BME280_pressure;Samples;Min_cycle;Max_cycle;Signal;HPM_P1;HPM_P2
2021/04/07 00:01:04;;;;;;;;;;;;;;;-2.84;100.00;93235.47;5096318;28;19920;-76
2021/04/07 00:03:31;;;;;;;;;;;;;;;-2.72;100.00;93241.25;5096388;28;19920;-74
2021/04/07 00:05:57;;;;;;;;;;;;;;;-2.73;100.00;93245.56;5096245;28;20006;-75
2021/04/07 00:08:26;;;;;;;;;;;;;;;-2.78;100.00;93240.03;5096050;28;19926;-76
2021/04/07 00:10:53;;;;;;;;;;;;;;;-2.77;100.00;93239.09;5096087;28;19920;-75
2021/04/07 00:13:19;;;;;;;;;;;;;;;-2.72;100.00;93244.59;5095964;28;19973;-75
2021/04/07 00:15:45;;;;;;;;;;;;;;;-2.72;100.00;93251.47;5096185;28;20010;-74
2021/04/07 00:18:12;;;;;;;;;;;;;;;-2.91;100.00;93267.59;5096066;28;19924;-74
2021/04/07 00:20:38;;;;;;;;;;;;;;;-3.02;100.00;93264.19;5096072;28;19920;-76
2021/04/07 00:23:04;;;;;;;;;;;;;;;-3.08;100.00;93269.84;5095869;28;19931;-75
2021/04/07 00:25:30;;;;;;;;;;;;;;;-3.37;100.00;93264.63;5095733;28;19966;-75
2021/04/07 00:28:00;;;;;;;;;;;;;;;-3.40;100.00;93270.81;5095570;28;19954;-75
2021/04/07 00:30:26;;;;;;;;;;;;;;;-3.40;100.00;93273.38;5095942;28;19973;-75
2021/04/07 00:32:53;;;;;;;;;;;;;;;-3.44;100.00;93279.66;5095536;28;19920;-75
2021/04/07 00:35:18;;;;;;;;;;;;;;;-3.53;100.00;93281.22;5095736;28;19920;-76
2021/04/07 00:37:44;;;;;;;;;;;;;;;-3.51;100.00;93278.56;5095330;28;19920;-75
2021/04/07 00:40:12;;;;;;;;;;;;;;;-3.55;100.00;93278.00;5095565;28;19920;-75
2021/04/07 00:42:42;;;;;;;;;;;;;;;-3.50;100.00;93284.44;5095493;28;19920;-76
2021/04/07 00:45:10;;;;;;;;;;;;;;;-3.67;100.00;93283.31;5095367;28;20002;-75
2021/04/07 00:47:36;;;;;;;;;;;;;;;-3.63;100.00;93284.66;5095333;28;19974;-77
2021/04/07 00:50:02;;;;;;;;;;;;;;;-3.65;100.00;93287.34;5095403;28;19924;-75
2021/04/07 00:52:28;;;;;;;;;;;;;;;-3.68;100.00;93281.69;5095172;28;19920;-76
2021/04/07 00:54:54;;;;;;;;;;;;;;;-3.76;100.00;93290.78;5095383;28;19950;-77
2021/04/07 00:57:21;;;;;;;;;;;;;;;-3.79;100.00;93291.03;5095153;28;20388;-75
2021/04/07 00:59:50;;;;;;;;;;;;;;;-3.84;100.00;93288.06;5095301;28;19924;-76
2021/04/07 01:02:18;;;;;;;;;;;;;;;-3.87;100.00;93292.59;5095017;28;20355;-77
2021/04/07 01:04:45;;;;;;;;;;;;;;;-3.91;100.00;93292.84;5094880;28;20362;-76
2021/04/07 01:07:11;;;;;;;;;;;;;;;-3.91;100.00;93294.59;5094951;28;19935;-76
2021/04/07 01:09:37;;;;;;;;;;;;;;;-3.80;100.00;93297.06;5094361;28;19926;-77
2021/04/07 01:12:03;;;;;;;;;;;;;;;-3.86;100.00;93289.94;5094762;28;20306;-76
2021/04/07 01:14:29;;;;;;;;;;;;;;;-3.87;100.00;93295.16;5094703;28;20260;-77
2021/04/07 01:16:55;;;;;;;;;;;;;;;-3.83;100.00;93294.78;5094588;28;19927;-77
2021/04/07 01:19:24;;;;;;;;;;;;;;;-3.74;100.00;93299.09;5094847;28;19977;-76
2021/04/07 01:21:51;;;;;;;;;;;;;;;-3.77;100.00;93299.34;5094763;28;19973;-77
2021/04/07 01:24:18;;;;;;;;;;;;;;;-3.84;100.00;93298.25;5095011;28;19982;-78
2021/04/07 01:26:44;;;;;;;;;;;;;;;-3.87;100.00;93298.50;5094685;28;20015;-78
2021/04/07 01:29:10;;;;;;;;;;;;;;;-3.93;100.00;93284.53;5094803;28;19959;-78
2021/04/07 01:31:43;;;;;;;;;;;;;;;-3.92;100.00;93295.53;5094384;28;19981;-78
2021/04/07 01:34:09;;;;;;;;;;;;;;;-3.89;100.00;93291.94;5094642;28;19924;-78
2021/04/07 01:36:38;;;;;;;;;;;;;;;-3.81;100.00;93292.91;5094440;28;19931;-79
2021/04/07 01:39:06;;;;;;;;;;;;;;;-3.72;100.00;93291.34;5094321;28;19924;-75
2021/04/07 01:41:33;;;;;;;;;;;;;;;-3.63;100.00;93289.75;5094483;28;19927;-77
2021/04/07 01:43:59;;;;;;;;;;;;;;;-3.61;100.00;93293.81;5094225;28;20417;-75
2021/04/07 01:46:25;;;;;;;;;;;;;;;-3.58;100.00;93287.63;5094182;28;20015;-78
2021/04/07 01:48:51;;;;;;;;;;;;;;;-3.53;100.00;93296.53;5093658;28;20477;-76
2021/04/07 01:51:17;;;;;;;;;;;;;;;-3.49;100.00;93296.28;5094083;28;19927;-76
2021/04/07 01:53:43;;;;;;;;;;;;;;;-3.64;100.00;93295.81;5093942;28;20370;-76
2021/04/07 01:56:09;;;;;;;;;;;;;;;-3.59;100.00;93297.03;5093993;28;19919;-76
2021/04/07 01:58:36;;;;;;;;;;;;;;;-3.53;100.00;93305.91;5094082;28;19999;-78
2021/04/07 02:01:02;;;;;;;;;;;;;;;-3.56;100.00;93301.88;5094127;28;19928;-77
2021/04/07 02:03:30;;;;;;;;;;;;;;;-3.61;100.00;93303.22;5094118;28;19927;-77
2021/04/07 02:05:58;;;;;;;;;;;;;;;-3.53;100.00;93313.56;5094041;28;19927;-74
2021/04/07 02:08:23;;;;;;;;;;;;;;;-3.38;100.00;93308.94;5093787;28;20340;-75
2021/04/07 02:10:49;;;;;;;;;;;;;;;-3.53;100.00;93308.47;5093953;28;19920;-76
2021/04/07 02:13:15;;;;;;;;;;;;;;;-3.46;100.00;93311.34;5093989;28;20371;-77
2021/04/07 02:15:42;;;;;;;;;;;;;;;-3.47;100.00;93313.06;5093711;28;19924;-77
2021/04/07 02:18:07;;;;;;;;;;;;;;;-3.38;100.00;93314.88;5093735;28;19927;-75
2021/04/07 02:20:33;;;;;;;;;;;;;;;-3.54;100.00;93317.06;5093628;28;19920;-75
2021/04/07 02:22:59;;;;;;;;;;;;;;;-3.58;100.00;93313.13;5093643;28;19919;-76
2021/04/07 02:25:25;;;;;;;;;;;;;;;-3.45;100.00;93318.84;5093759;28;19920;-75
2021/04/07 02:27:51;;;;;;;;;;;;;;;-3.41;100.00;93317.66;5093652;28;20022;-75
2021/04/07 02:30:17;;;;;;;;;;;;;;;-3.39;100.00;93317.53;5093608;28;20385;-75
2021/04/07 02:32:44;;;;;;;;;;;;;;;-3.50;100.00;93318.41;5093407;28;19920;-75
2021/04/07 02:35:13;;;;;;;;;;;;;;;-3.50;100.00;93317.63;5093447;28;19924;-75
2021/04/07 02:37:39;;;;;;;;;;;;;;;-3.44;100.00;93327.31;5093693;28;19920;-75
2021/04/07 02:40:06;;;;;;;;;;;;;;;-3.43;100.00;93326.38;5093629;28;19981;-75
2021/04/07 02:42:31;;;;;;;;;;;;;;;-3.38;100.00;93331.91;5093489;28;20123;-75
2021/04/07 02:44:57;;;;;;;;;;;;;;;-3.44;100.00;93329.88;5093387;28;19927;-75
2021/04/07 02:47:23;;;;;;;;;;;;;;;-3.44;100.00;93340.88;5093207;28;19973;-76
2021/04/07 02:49:50;;;;;;;;;;;;;;;-3.44;100.00;93335.78;5093256;28;19920;-77
2021/04/07 02:52:16;;;;;;;;;;;;;;;-3.36;100.00;93346.16;5093599;28;19924;-76
2021/04/07 02:54:41;;;;;;;;;;;;;;;-3.44;100.00;93356.19;5093446;28;20399;-74
2021/04/07 02:57:07;;;;;;;;;;;;;;;-3.52;100.00;93358.56;5093401;28;20463;-74
2021/04/07 02:59:33;;;;;;;;;;;;;;;-3.54;100.00;93357.88;5093571;28;19924;-75
2021/04/07 03:01:59;;;;;;;;;;;;;;;-3.64;100.00;93365.47;5097344;28;19927;-75
2021/04/07 03:04:25;;;;;;;;;;;;;;;-3.65;100.00;93358.75;5097073;28;19935;-76
2021/04/07 03:06:51;;;;;;;;;;;;;;;-3.57;100.00;93360.69;5097618;28;19969;-75
2021/04/07 03:09:17;;;;;;;;;;;;;;;-3.59;100.00;93362.56;5097288;28;20442;-76
2021/04/07 03:11:43;;;;;;;;;;;;;;;-3.53;100.00;93367.97;5097334;28;19973;-76
2021/04/07 03:14:09;;;;;;;;;;;;;;;-3.59;100.00;93378.66;5097500;28;19920;-76
2021/04/07 03:16:35;;;;;;;;;;;;;;;-3.58;100.00;93375.19;5097167;28;19974;-76
2021/04/07 03:19:01;;;;;;;;;;;;;;;-3.60;100.00;93376.25;5096455;28;19924;-75
2021/04/07 03:21:27;;;;;;;;;;;;;;;-3.65;100.00;93383.47;5097194;28;20371;-75
2021/04/07 03:23:53;;;;;;;;;;;;;;;-3.60;100.00;93394.09;5096965;28;19959;-75
2021/04/07 03:26:19;;;;;;;;;;;;;;;-3.56;100.00;93392.94;5096763;28;20382;-76
2021/04/07 03:28:45;;;;;;;;;;;;;;;-3.55;100.00;93391.97;5096934;28;19927;-76
2021/04/07 03:31:11;;;;;;;;;;;;;;;-3.58;100.00;93399.88;5096619;28;19923;-76
2021/04/07 03:33:37;;;;;;;;;;;;;;;-3.58;100.00;93407.53;5096744;28;20014;-76
2021/04/07 03:36:04;;;;;;;;;;;;;;;-3.62;100.00;93404.41;5096813;28;19927;-75
2021/04/07 03:38:30;;;;;;;;;;;;;;;-3.59;100.00;93418.69;5096767;28;19920;-76
2021/04/07 03:41:00;;;;;;;;;;;;;;;-3.63;100.00;93407.09;5096602;28;20292;-75
2021/04/07 03:43:26;;;;;;;;;;;;;;;-3.72;100.00;93419.66;5096660;28;19920;-76
2021/04/07 03:45:53;;;;;;;;;;;;;;;-3.61;100.00;93416.25;5096804;28;19927;-74
2021/04/07 03:48:19;;;;;;;;;;;;;;;-3.59;100.00;93414.38;5096792;28;19923;-75
2021/04/07 03:50:47;;;;;;;;;;;;;;;-3.61;100.00;93420.56;5096686;28;20057;-77
2021/04/07 03:53:14;;;;;;;;;;;;;;;-3.64;100.00;93431.00;5096506;28;19926;-74
2021/04/07 03:55:40;;;;;;;;;;;;;;;-3.59;100.00;93423.78;5096442;28;20367;-76
2021/04/07 03:58:07;;;;;;;;;;;;;;;-3.68;100.00;93414.31;5096517;28;19920;-74
2021/04/07 04:00:33;;;;;;;;;;;;;;;-3.68;100.00;93425.34;5096236;28;19943;-75
2021/04/07 04:02:58;;;;;;;;;;;;;;;-3.62;100.00;93429.94;5096442;28;20371;-76
2021/04/07 04:05:24;;;;;;;;;;;;;;;-3.56;100.00;93431.19;5096369;28;19924;-74
2021/04/07 04:07:50;;;;;;;;;;;;;;;-3.65;100.00;93429.38;5096111;28;20328;-75
2021/04/07 04:10:16;;;;;;;;;;;;;;;-3.59;100.00;93434.00;5096183;28;19965;-75
2021/04/07 04:12:43;;;;;;;;;;;;;;;-3.59;100.00;93439.88;5095349;28;19920;-74
2021/04/07 04:15:11;;;;;;;;;;;;;;;-3.53;100.00;93451.31;5095940;28;20283;-74
2021/04/07 04:17:37;;;;;;;;;;;;;;;-3.65;100.00;93447.22;5096158;28;19919;-75
2021/04/07 04:20:03;;;;;;;;;;;;;;;-3.67;100.00;93449.91;5096079;28;19920;-77
2021/04/07 04:22:29;;;;;;;;;;;;;;;-3.54;100.00;93453.06;5095934;28;19927;-76
2021/04/07 04:24:55;;;;;;;;;;;;;;;-3.52;100.00;93458.06;5095867;28;19919;-77
2021/04/07 04:27:20;;;;;;;;;;;;;;;-3.51;100.00;93456.31;5095728;28;19920;-76
2021/04/07 04:29:46;;;;;;;;;;;;;;;-3.65;100.00;93452.31;5095641;28;20302;-76
2021/04/07 04:32:13;;;;;;;;;;;;;;;-3.68;100.00;93470.41;5095616;28;20283;-77
2021/04/07 04:34:39;;;;;;;;;;;;;;;-3.60;100.00;93478.28;5095808;28;19920;-76
2021/04/07 04:37:05;;;;;;;;;;;;;;;-3.58;100.00;93471.31;5095635;28;19927;-76
2021/04/07 04:39:31;;;;;;;;;;;;;;;-3.56;100.00;93467.72;5095859;28;19927;-76
2021/04/07 04:41:56;;;;;;;;;;;;;;;-3.51;100.00;93480.09;5095522;28;19926;-76
2021/04/07 04:44:22;;;;;;;;;;;;;;;-3.51;100.00;93484.38;5095391;28;19923;-76
2021/04/07 04:46:48;;;;;;;;;;;;;;;-3.48;100.00;93482.41;5095526;28;19920;-76
2021/04/07 04:49:15;;;;;;;;;;;;;;;-3.52;100.00;93488.69;5095551;28;20345;-76
2021/04/07 04:51:41;;;;;;;;;;;;;;;-3.50;100.00;93494.47;5095351;28;19927;-76
2021/04/07 04:54:08;;;;;;;;;;;;;;;-3.59;100.00;93507.97;5095365;28;19959;-77
2021/04/07 04:56:34;;;;;;;;;;;;;;;-3.58;100.00;93514.66;5095436;28;19920;-77
2021/04/07 04:59:00;;;;;;;;;;;;;;;-3.61;100.00;93517.50;5095101;28;19920;-77
2021/04/07 05:01:26;;;;;;;;;;;;;;;-3.57;100.00;93523.94;5095053;28;20020;-76
2021/04/07 05:03:51;;;;;;;;;;;;;;;-3.70;100.00;93533.50;5095188;28;19924;-76
2021/04/07 05:06:18;;;;;;;;;;;;;;;-3.63;100.00;93539.72;5095189;28;19920;-76
2021/04/07 05:08:45;;;;;;;;;;;;;;;-3.68;100.00;93547.78;5095012;28;19920;-77
2021/04/07 05:11:10;;;;;;;;;;;;;;;-3.64;100.00;93563.63;5094920;28;19920;-76
2021/04/07 05:13:36;;;;;;;;;;;;;;;-3.62;100.00;93561.78;5095606;28;19920;-78
2021/04/07 05:16:02;;;;;;;;;;;;;;;-3.60;100.00;93565.00;5094744;28;19920;-77
2021/04/07 05:18:28;;;;;;;;;;;;;;;-3.63;100.00;93567.78;5094915;28;20228;-78
2021/04/07 05:20:54;;;;;;;;;;;;;;;-3.61;100.00;93569.31;5094860;28;19919;-77
2021/04/07 05:23:21;;;;;;;;;;;;;;;-3.60;100.00;93570.91;5093847;28;19920;-77
2021/04/07 05:25:47;;;;;;;;;;;;;;;-3.63;100.00;93575.44;5094231;28;19946;-77
2021/04/07 05:28:13;;;;;;;;;;;;;;;-3.66;100.00;93583.31;5094398;28;20367;-77
2021/04/07 05:33:23;;;;;;;;;;;;;;;-3.56;100.00;93587.59;5094473;28;19930;-76
2021/04/07 05:35:49;;;;;;;;;;;;;;;-3.54;100.00;93597.69;5094724;28;19920;-77
2021/04/07 05:38:17;;;;;;;;;;;;;;;-3.48;100.00;93597.22;5094672;28;20011;-78
2021/04/07 05:40:43;;;;;;;;;;;;;;;-3.55;100.00;93599.44;5094783;28;19966;-76
2021/04/07 05:43:10;;;;;;;;;;;;;;;-3.46;100.00;93613.22;5094524;28;19973;-77
2021/04/07 05:45:37;;;;;;;;;;;;;;;-3.50;100.00;93609.28;5094310;28;20374;-77
2021/04/07 05:48:03;;;;;;;;;;;;;;;-3.49;100.00;93617.75;5094269;28;19920;-78
2021/04/07 05:50:29;;;;;;;;;;;;;;;-3.36;100.00;93629.44;5094227;28;19927;-78
2021/04/07 05:52:55;;;;;;;;;;;;;;;-3.43;100.00;93623.19;5094182;28;19920;-75
2021/04/07 05:55:21;;;;;;;;;;;;;;;-3.31;100.00;93638.44;5094185;28;20440;-77
2021/04/07 05:57:56;;;;;;;;;;;;;;;-3.20;100.00;93639.25;5093923;28;20271;-77
2021/04/07 06:00:23;;;;;;;;;;;;;;;-3.09;100.00;93643.50;5094183;28;19953;-77
2021/04/07 06:02:48;;;;;;;;;;;;;;;-2.94;100.00;93656.00;5094036;28;19934;-75
2021/04/07 06:05:15;;;;;;;;;;;;;;;-3.00;100.00;93655.56;5094000;28;19919;-77
2021/04/07 06:07:40;;;;;;;;;;;;;;;-3.05;100.00;93660.22;5093742;28;19920;-76
2021/04/07 06:10:07;;;;;;;;;;;;;;;-2.87;100.00;93669.88;5093946;28;19927;-74
2021/04/07 06:12:32;;;;;;;;;;;;;;;-2.77;100.00;93675.88;5093971;28;19920;-76
2021/04/07 06:14:59;;;;;;;;;;;;;;;-2.49;100.00;93689.81;5093938;28;19919;-76
2021/04/07 06:17:25;;;;;;;;;;;;;;;-2.68;100.00;93684.53;5093720;28;19926;-75
2021/04/07 06:19:51;;;;;;;;;;;;;;;-2.55;100.00;93692.06;5093718;28;19920;-75
2021/04/07 06:22:16;;;;;;;;;;;;;;;-2.63;100.00;93698.59;5093750;28;19926;-75
2021/04/07 06:24:42;;;;;;;;;;;;;;;-2.73;100.00;93705.38;5093912;28;19920;-75
2021/04/07 06:27:08;;;;;;;;;;;;;;;-2.68;100.00;93705.81;5093651;28;20278;-75
2021/04/07 06:29:34;;;;;;;;;;;;;;;-2.70;100.00;93707.66;5093687;28;20374;-76
2021/04/07 06:32:00;;;;;;;;;;;;;;;-2.54;100.00;93711.56;5093259;28;20394;-76
2021/04/07 06:34:26;;;;;;;;;;;;;;;-2.61;100.00;93712.06;5093179;28;19920;-76
2021/04/07 06:36:52;;;;;;;;;;;;;;;-2.71;100.00;93713.72;5093497;28;20355;-77
2021/04/07 06:39:18;;;;;;;;;;;;;;;-2.59;100.00;93719.59;5093728;28;20320;-77
2021/04/07 06:41:44;;;;;;;;;;;;;;;-2.35;100.00;93718.56;5093411;28;19920;-76
2021/04/07 06:44:10;;;;;;;;;;;;;;;-2.32;100.00;93731.91;5093399;28;19965;-76
2021/04/07 06:46:36;;;;;;;;;;;;;;;-2.24;100.00;93719.31;5093331;28;20386;-75
2021/04/07 06:49:04;;;;;;;;;;;;;;;-2.34;100.00;93723.56;5093375;28;19965;-75
2021/04/07 06:51:31;;;;;;;;;;;;;;;-2.24;100.00;93724.44;5093252;28;19919;-75
2021/04/07 06:53:58;;;;;;;;;;;;;;;-2.30;100.00;93730.06;5093369;28;20383;-75
2021/04/07 06:56:24;;;;;;;;;;;;;;;-2.08;100.00;93726.56;5093426;28;19924;-76
2021/04/07 06:58:50;;;;;;;;;;;;;;;-2.04;100.00;93734.78;5093448;28;19969;-75
2021/04/07 07:01:16;;;;;;;;;;;;;;;-1.75;100.00;93736.69;5093339;28;19920;-76
2021/04/07 07:03:42;;;;;;;;;;;;;;;-1.66;100.00;93746.19;5093379;28;19924;-76
2021/04/07 07:06:09;;;;;;;;;;;;;;;-1.63;100.00;93747.66;5093322;28;20275;-75
2021/04/07 07:08:34;;;;;;;;;;;;;;;-1.54;100.00;93752.81;5093091;28;20449;-77
2021/04/07 07:11:09;;;;;;;;;;;;;;;-1.34;98.09;93743.47;5093101;28;19927;-75
2021/04/07 07:13:35;;;;;;;;;;;;;;;-1.12;97.72;93751.91;5093402;28;19961;-75
2021/04/07 07:16:01;;;;;;;;;;;;;;;-1.26;95.22;93765.88;5093152;28;19923;-74
2021/04/07 07:18:27;;;;;;;;;;;;;;;-1.74;97.34;93761.34;5093310;28;19920;-77
2021/04/07 07:20:54;;;;;;;;;;;;;;;-1.94;94.88;93776.56;5093376;28;19920;-76
2021/04/07 07:23:22;;;;;;;;;;;;;;;-1.81;95.12;93767.91;5093177;28;20390;-77
2021/04/07 07:25:53;;;;;;;;;;;;;;;-1.40;96.40;93764.50;5092781;28;19920;-76
2021/04/07 07:28:19;;;;;;;;;;;;;;;-0.23;91.50;93759.59;5093266;28;19920;-77
2021/04/07 07:30:46;;;;;;;;;;;;;;;0.85;84.02;93761.94;5093051;28;19965;-76
2021/04/07 07:33:13;;;;;;;;;;;;;;;0.55;81.87;93766.38;5092724;28;19973;-76
2021/04/07 07:35:39;;;;;;;;;;;;;;;0.38;84.37;93772.22;5092862;28;20344;-76
2021/04/07 07:38:05;;;;;;;;;;;;;;;-0.54;91.17;93794.81;5093197;28;19970;-77
2021/04/07 07:40:31;;;;;;;;;;;;;;;-1.00;94.70;93796.16;5092989;28;20327;-77
2021/04/07 07:42:57;;;;;;;;;;;;;;;-1.07;95.85;93795.88;5092896;28;19973;-77
2021/04/07 07:45:28;;;;;;;;;;;;;;;-0.76;91.42;93809.47;5093129;28;19998;-76
2021/04/07 07:48:17;;;;;;;;;;;;;;;-0.59;90.90;93804.66;5095221;28;19920;-77
2021/04/07 07:50:44;;;;;;;;;;;;;;;-0.64;90.37;93806.78;5071606;28;20389;-76
2021/04/07 07:53:13;;;;;;;;;;;;;;;-1.23;90.12;93818.59;5096381;28;20291;-75
2021/04/07 07:55:40;;;;;;;;;;;;;;;-1.19;93.07;93822.53;5096468;28;20016;-77
2021/04/07 07:58:06;;;;;;;;;;;;;;;-1.34;90.75;93824.59;5096245;28;19942;-76
2021/04/07 08:00:34;;;;;;;;;;;;;;;-1.61;92.69;93833.63;5096634;28;19967;-76
2021/04/07 08:03:07;;;;;;;;;;;;;;;-1.72;94.43;93836.25;5096465;28;19969;-77
2021/04/07 08:05:33;;;;;;;;;;;;;;;-1.19;93.42;93845.56;5096198;28;19980;-76
2021/04/07 08:07:59;;;;;;;;;;;;;;;-1.45;90.10;93837.47;5096168;28;19928;-76
2021/04/07 08:10:25;;;;;;;;;;;;;;;-1.14;93.86;93846.00;5096210;28;20367;-76
2021/04/07 08:12:52;;;;;;;;;;;;;;;-0.94;90.48;93841.78;5096037;28;20358;-76
2021/04/07 08:15:17;;;;;;;;;;;;;;;-0.89;88.70;93842.19;5096156;28;19919;-76
2021/04/07 08:17:43;;;;;;;;;;;;;;;-0.98;89.27;93843.78;5078141;28;19974;-76
2021/04/07 08:20:09;;;;;;;;;;;;;;;-1.09;89.03;93854.13;5075537;28;19924;-75
2021/04/07 08:22:37;;;;;;;;;;;;;;;-0.97;88.93;93852.28;5075514;28;19924;-76
2021/04/07 08:25:03;;;;;;;;;;;;;;;-0.84;88.33;93842.63;5075550;28;20010;-75
2021/04/07 08:27:30;;;;;;;;;;;;;;;-0.56;88.67;93850.53;5075326;28;19973;-75
2021/04/07 08:29:56;;;;;;;;;;;;;;;-0.50;88.29;93844.06;5075659;28;19928;-75
2021/04/07 08:32:25;;;;;;;;;;;;;;;0.04;85.20;93845.34;5075301;28;20279;-75
2021/04/07 08:34:51;;;;;;;;;;;;;;;0.22;84.87;93845.50;5075638;28;19928;-75
2021/04/07 08:37:25;;;;;;;;;;;;;;;-0.25;82.35;93861.53;5075295;28;20370;-75
2021/04/07 08:39:51;;;;;;;;;;;;;;;-0.21;85.47;93859.50;5075167;28;19959;-73
2021/04/07 08:42:17;;;;;;;;;;;;;;;-0.19;83.79;93857.63;5075399;28;19950;-75
2021/04/07 08:44:46;;;;;;;;;;;;;;;-0.30;83.16;93868.00;5075283;28;19927;-75
2021/04/07 08:47:25;;;;;;;;;;;;;;;-0.45;79.70;93862.41;5075129;28;20372;-74
2021/04/07 08:50:00;;;;;;;;;;;;;;;-0.51;83.01;93865.53;5075354;28;20046;-75
2021/04/07 08:52:26;;;;;;;;;;;;;;;-0.45;82.34;93868.38;5078059;28;19930;-75
2021/04/07 08:54:53;;;;;;;;;;;;;;;-0.16;81.35;93879.66;5095090;28;20026;-76
2021/04/07 08:57:30;;;;;;;;;;;;;;;0.89;78.15;93871.22;5094639;28;20023;-75
2021/04/07 08:59:57;;;;;;;;;;;;;;;0.57;78.18;93874.09;5094915;28;20011;-75
2021/04/07 09:02:24;;;;;;;;;;;;;;;0.37;78.30;93866.44;5095124;28;19920;-76
2021/04/07 09:05:04;;;;;;;;;;;;;;;0.24;83.02;93871.84;5094966;28;19920;-74
2021/04/07 09:07:39;;;;;;;;;;;;;;;-0.03;82.43;93857.91;5095122;28;19924;-77
2021/04/07 09:10:12;;;;;;;;;;;;;;;-0.05;84.95;93877.78;5094408;28;19920;-74
2021/04/07 09:12:39;;;;;;;;;;;;;;;-0.42;86.66;93875.81;5094773;28;20050;-77
2021/04/07 09:15:25;;;;;;;;;;;;;;;-0.73;89.53;93889.59;5094701;28;19942;-75
2021/04/07 09:17:53;;;;;;;;;;;;;;;-0.98;90.66;93897.59;5091151;28;19986;-77
2021/04/07 09:20:35;;;;;;;;;;;;;;;-0.89;90.71;93901.13;5094660;28;19919;-75
2021/04/07 09:23:15;;;;;;;;;;;;;;;-1.02;92.85;93900.53;5094576;28;20371;-74
2021/04/07 09:25:45;;;;;;;;;;;;;;;-0.42;90.98;93916.00;5093975;28;20371;-75
2021/04/07 09:28:13;;;;;;;;;;;;;;;0.68;86.90;93908.19;5094412;28;19924;-76
2021/04/07 09:30:42;;;;;;;;;;;;;;;0.77;84.31;93905.72;5094604;28;20421;-74
2021/04/07 09:33:10;;;;;;;;;;;;;;;0.29;85.90;93908.19;5094211;28;19919;-76
2021/04/07 09:35:37;;;;;;;;;;;;;;;0.25;86.94;93904.28;5094326;28;20342;-75
2021/04/07 09:38:03;;;;;;;;;;;;;;;0.23;85.51;93911.28;5094305;28;19920;-75
2021/04/07 09:40:29;;;;;;;;;;;;;;;0.13;86.46;93915.59;5094579;28;20332;-74
2021/04/07 09:42:55;;;;;;;;;;;;;;;0.30;85.08;93914.13;5094213;28;20374;-76
2021/04/07 09:45:24;;;;;;;;;;;;;;;0.71;82.67;93915.59;5094329;28;19956;-76
2021/04/07 09:47:56;;;;;;;;;;;;;;;0.98;80.04;93920.97;5094157;28;20015;-76
2021/04/07 09:50:27;;;;;;;;;;;;;;;1.05;79.29;93910.00;5094357;28;19920;-78
2021/04/07 09:52:53;;;;;;;;;;;;;;;0.78;80.67;93923.56;5093979;28;19920;-76
2021/04/07 09:55:20;;;;;;;;;;;;;;;1.04;79.35;93921.22;5094269;28;19965;-76
2021/04/07 09:57:55;;;;;;;;;;;;;;;1.15;76.80;93915.13;5094151;28;19923;-76
2021/04/07 10:00:20;;;;;;;;;;;;;;;0.95;78.77;93929.78;5094094;28;19927;-76
2021/04/07 10:02:46;;;;;;;;;;;;;;;0.36;76.23;93929.78;5093892;28;19924;-76
2021/04/07 10:05:12;;;;;;;;;;;;;;;0.67;77.86;93929.66;5093788;28;19924;-74
2021/04/07 10:07:42;;;;;;;;;;;;;;;1.26;76.95;93934.69;5093706;28;19920;-75
2021/04/07 10:10:08;;;;;;;;;;;;;;;1.32;74.59;93926.44;5093443;28;19920;-75
2021/04/07 10:12:34;;;;;;;;;;;;;;;1.41;76.17;93925.56;5093965;28;19935;-75
2021/04/07 10:15:01;;;;;;;;;;;;;;;1.31;74.09;93927.38;5093846;28;19920;-73
2021/04/07 10:17:27;;;;;;;;;;;;;;;0.99;76.64;93930.31;5093631;28;20405;-74
2021/04/07 10:19:54;;;;;;;;;;;;;;;0.44;77.78;93930.91;5093612;28;20397;-73
2021/04/07 10:22:20;;;;;;;;;;;;;;;0.31;78.74;93929.38;5093816;28;19927;-73
2021/04/07 10:24:48;;;;;;;;;;;;;;;0.52;80.33;93936.16;5093680;28;19924;-75
2021/04/07 10:27:20;;;;;;;;;;;;;;;0.55;79.38;93944.41;5093532;28;19978;-74
2021/04/07 10:29:46;;;;;;;;;;;;;;;-0.01;82.52;93933.00;5093581;28;19942;-74
2021/04/07 10:32:15;;;;;;;;;;;;;;;-0.20;82.25;93949.16;5093282;28;20378;-74
2021/04/07 10:34:41;;;;;;;;;;;;;;;0.02;83.78;93962.72;5093705;28;19920;-74
2021/04/07 10:37:07;;;;;;;;;;;;;;;-0.30;84.57;93944.94;5093365;28;19927;-74
2021/04/07 10:39:40;;;;;;;;;;;;;;;0.07;83.28;93944.38;5093484;28;19931;-75
2021/04/07 10:42:08;;;;;;;;;;;;;;;0.51;81.42;93943.03;5093362;28;20381;-75
2021/04/07 10:44:35;;;;;;;;;;;;;;;0.51;81.43;93940.47;5093525;28;20290;-76
2021/04/07 10:47:03;;;;;;;;;;;;;;;-0.02;83.19;93963.91;5093555;28;20336;-77
2021/04/07 10:49:29;;;;;;;;;;;;;;;-0.11;84.51;93960.41;5093522;28;20011;-77
2021/04/07 10:51:59;;;;;;;;;;;;;;;0.19;83.52;93958.72;5093120;28;20390;-74
2021/04/07 10:54:27;;;;;;;;;;;;;;;0.55;84.50;93953.88;5093363;28;19982;-75
2021/04/07 10:57:00;;;;;;;;;;;;;;;0.65;84.56;93961.56;5093478;28;19924;-75
2021/04/07 10:59:29;;;;;;;;;;;;;;;0.84;81.60;93955.63;5093219;28;19950;-77
2021/04/07 11:01:55;;;;;;;;;;;;;;;1.16;81.95;93952.72;5093203;28;19920;-75
2021/04/07 11:04:21;;;;;;;;;;;;;;;1.31;80.80;93947.16;5093297;28;19927;-74
2021/04/07 11:06:51;;;;;;;;;;;;;;;1.80;76.44;93946.00;5093102;28;19927;-75
2021/04/07 11:09:23;;;;;;;;;;;;;;;2.12;76.94;93938.81;5093026;28;19924;-76
2021/04/07 11:11:49;;;;;;;;;;;;;;;1.95;74.18;93946.34;5093192;28;19920;-77
2021/04/07 11:14:15;;;;;;;;;;;;;;;1.56;75.03;93948.28;5093200;28;19966;-77
2021/04/07 11:16:42;;;;;;;;;;;;;;;1.34;73.21;93949.44;5092771;28;19928;-77
2021/04/07 11:19:13;;;;;;;;;;;;;;;1.17;77.18;93938.13;5093104;28;19949;-74
2021/04/07 11:21:39;;;;;;;;;;;;;;;1.54;75.48;93950.19;5093551;28;19920;-77
2021/04/07 11:24:05;;;;;;;;;;;;;;;1.76;73.69;93944.66;5097038;28;20324;-74
2021/04/07 11:26:31;;;;;;;;;;;;;;;2.04;69.83;93952.38;5096871;28;19926;-77
2021/04/07 11:28:57;;;;;;;;;;;;;;;1.69;71.33;93946.19;5097024;28;19920;-77
2021/04/07 11:31:24;;;;;;;;;;;;;;;1.89;70.83;93952.06;5096792;28;19955;-77
2021/04/07 11:33:56;;;;;;;;;;;;;;;1.92;76.75;93948.41;5096830;28;20445;-75
2021/04/07 11:36:39;;;;;;;;;;;;;;;2.63;69.70;93947.69;5096739;28;19920;-75
2021/04/07 11:39:13;;;;;;;;;;;;;;;2.89;68.54;93952.88;5096627;28;19920;-75
2021/04/07 11:44:31;;;;;;;;;;;;;;;2.42;69.12;93947.97;5093842;28;19924;-77
2021/04/07 11:46:59;;;;;;;;;;;;;;;2.71;69.04;93952.06;5096571;28;19920;-77
2021/04/07 11:49:25;;;;;;;;;;;;;;;2.45;70.34;93947.66;5096333;28;19926;-75
2021/04/07 11:51:52;;;;;;;;;;;;;;;2.19;68.61;93956.09;5096423;28;20389;-75
2021/04/07 11:54:18;;;;;;;;;;;;;;;2.42;66.21;93960.84;5096528;28;19920;-75
2021/04/07 11:56:45;;;;;;;;;;;;;;;3.03;69.05;93942.97;5096438;28;19927;-75
2021/04/07 11:59:12;;;;;;;;;;;;;;;2.47;68.25;93948.31;5096210;28;20008;-77
2021/04/07 12:01:37;;;;;;;;;;;;;;;2.04;69.68;93954.97;5096275;28;19919;-75
2021/04/07 12:04:09;;;;;;;;;;;;;;;1.39;69.16;93952.41;5096072;28;19947;-75
2021/04/07 12:06:36;;;;;;;;;;;;;;;1.00;71.62;93963.59;5096041;28;20412;-74
2021/04/07 12:09:03;;;;;;;;;;;;;;;0.84;74.44;93965.91;5095915;28;19927;-76
2021/04/07 12:11:29;;;;;;;;;;;;;;;1.22;71.08;93959.09;5096294;28;20537;-76
2021/04/07 12:13:55;;;;;;;;;;;;;;;1.41;70.08;93965.94;5096011;28;19920;-76
2021/04/07 12:16:21;;;;;;;;;;;;;;;1.21;73.16;93950.53;5095875;28;19973;-78
2021/04/07 12:18:47;;;;;;;;;;;;;;;1.70;71.59;93952.97;5095867;28;19927;-75
2021/04/07 12:21:13;;;;;;;;;;;;;;;2.21;69.21;93954.22;5095780;28;19924;-76
2021/04/07 12:23:40;;;;;;;;;;;;;;;1.93;69.59;93955.16;5095902;28;19957;-77
2021/04/07 12:26:06;;;;;;;;;;;;;;;1.82;68.81;93951.03;5095785;28;19920;-75
2021/04/07 12:28:34;;;;;;;;;;;;;;;1.88;74.88;93952.19;5095639;28;20041;-76
2021/04/07 12:31:00;;;;;;;;;;;;;;;1.81;72.34;93957.91;5095461;28;19920;-77
2021/04/07 12:33:27;;;;;;;;;;;;;;;1.56;71.75;93959.38;5095222;28;20018;-76
2021/04/07 12:35:54;;;;;;;;;;;;;;;1.42;71.92;93973.50;5095721;28;19954;-77
2021/04/07 12:38:20;;;;;;;;;;;;;;;1.52;72.20;93972.69;5095585;28;19980;-76
2021/04/07 12:40:48;;;;;;;;;;;;;;;1.73;72.84;93985.31;5095585;28;20011;-76
2021/04/07 12:43:14;;;;;;;;;;;;;;;1.27;73.38;93974.91;5095511;28;20011;-77
2021/04/07 12:45:40;;;;;;;;;;;;;;;1.58;72.23;93983.22;5095366;28;20026;-77
2021/04/07 12:48:07;;;;;;;;;;;;;;;1.67;69.43;93976.41;5095279;28;19920;-77